createdAt,value
2018-07-24T00:01:06.583Z,19.17
2018-07-24T00:03:35.477Z,19.09
2018-07-24T00:06:04.370Z,19.08
2018-07-24T00:08:33.466Z,19.06
2018-07-24T00:11:02.391Z,19.01
2018-07-24T00:13:31.363Z,19.02
2018-07-24T00:16:00.291Z,18.97
2018-07-24T00:18:29.260Z,18.98
2018-07-24T00:20:58.177Z,18.89
2018-07-24T00:23:27.110Z,18.74
2018-07-24T00:25:56.109Z,18.72
2018-07-24T00:28:25.072Z,18.79
2018-07-24T00:30:54.103Z,18.82
2018-07-24T00:33:23.058Z,18.74
2018-07-24T00:35:52.080Z,18.62
2018-07-24T00:38:20.975Z,18.66
2018-07-24T00:40:49.905Z,18.68
2018-07-24T00:43:18.852Z,18.63
2018-07-24T00:45:47.755Z,18.58
2018-07-24T00:48:16.653Z,18.48
2018-07-24T00:50:45.610Z,18.51
2018-07-24T00:53:14.491Z,18.42
2018-07-24T00:55:43.434Z,18.38
2018-07-24T00:58:12.335Z,18.35
2018-07-24T01:00:41.265Z,18.28
2018-07-24T01:03:10.270Z,18.27
2018-07-24T01:05:39.184Z,18.24
2018-07-24T01:08:08.076Z,18.16
2018-07-24T01:10:36.987Z,18.12
2018-07-24T01:13:06.039Z,18.13
2018-07-24T01:15:35.076Z,18.05
2018-07-24T01:18:04.023Z,18.04
2018-07-24T01:20:33.072Z,17.98
2018-07-24T01:23:02.084Z,17.94
2018-07-24T01:25:31.343Z,17.90
2018-07-24T01:28:00.282Z,17.84
2018-07-24T01:30:29.211Z,17.86
2018-07-24T01:32:58.146Z,17.85
2018-07-24T01:35:27.175Z,17.82
2018-07-24T01:37:56.192Z,17.77
2018-07-24T01:40:25.164Z,17.72
2018-07-24T01:42:54.073Z,17.69
2018-07-24T01:45:23.018Z,17.66
2018-07-24T01:47:51.959Z,17.64
2018-07-24T01:50:20.877Z,17.58
2018-07-24T01:52:49.795Z,17.53
2018-07-24T01:55:18.732Z,17.42
2018-07-24T01:57:47.650Z,17.38
2018-07-24T02:00:17.900Z,17.31
2018-07-24T02:02:47.715Z,17.39
2018-07-24T02:05:16.611Z,17.38
2018-07-24T02:07:45.499Z,17.32
2018-07-24T02:10:14.412Z,17.35
2018-07-24T02:12:43.332Z,17.34
2018-07-24T02:15:12.246Z,17.22
2018-07-24T02:17:41.161Z,17.25
2018-07-24T02:20:10.080Z,17.24
2018-07-24T02:22:38.992Z,17.22
2018-07-24T02:25:07.982Z,17.22
2018-07-24T02:27:36.908Z,17.21
2018-07-24T02:30:06.234Z,17.22
2018-07-24T02:32:35.124Z,17.17
2018-07-24T02:35:04.238Z,17.20
2018-07-24T02:37:33.252Z,17.08
2018-07-24T02:40:02.168Z,16.98
2018-07-24T02:42:31.359Z,16.92
2018-07-24T02:45:00.280Z,16.86
2018-07-24T02:47:29.208Z,16.89
2018-07-24T02:49:58.119Z,16.86
2018-07-24T02:52:27.032Z,16.91
2018-07-24T02:54:55.937Z,16.87
2018-07-24T02:57:24.855Z,16.83
2018-07-24T02:59:53.756Z,16.76
2018-07-24T03:02:22.672Z,16.74
2018-07-24T03:04:51.563Z,16.72
2018-07-24T03:07:20.459Z,16.70
2018-07-24T03:09:49.371Z,16.71
2018-07-24T03:12:18.343Z,16.75
2018-07-24T03:14:47.275Z,16.72
2018-07-24T03:17:16.195Z,16.62
2018-07-24T03:19:45.323Z,16.58
2018-07-24T03:22:14.247Z,16.59
2018-07-24T03:24:44.123Z,16.59
2018-07-24T03:27:13.132Z,16.59
2018-07-24T03:29:42.040Z,16.51
2018-07-24T03:32:11.249Z,16.47
2018-07-24T03:34:40.241Z,16.53
2018-07-24T03:37:09.146Z,16.58
2018-07-24T03:39:38.116Z,16.61
2018-07-24T03:42:07.031Z,16.59
2018-07-24T03:44:35.973Z,16.68
2018-07-24T03:47:04.882Z,16.73
2018-07-24T03:49:33.826Z,16.73
2018-07-24T03:52:02.743Z,16.75
2018-07-24T03:54:31.665Z,16.78
2018-07-24T03:57:00.631Z,16.76
2018-07-24T03:59:29.651Z,16.85
2018-07-24T04:01:58.695Z,16.84
2018-07-24T04:04:28.141Z,16.91
2018-07-24T04:06:57.075Z,16.95
2018-07-24T04:09:26.000Z,16.99
2018-07-24T04:11:55.005Z,16.96
2018-07-24T04:14:23.943Z,16.99
2018-07-24T04:16:52.848Z,17.00
2018-07-24T04:19:21.751Z,17.05
2018-07-24T04:21:50.656Z,17.05
2018-07-24T04:24:19.565Z,17.13
2018-07-24T04:26:48.483Z,17.19
2018-07-24T04:29:17.378Z,17.27
2018-07-24T04:31:46.315Z,17.28
2018-07-24T04:34:15.257Z,17.34
2018-07-24T04:36:44.166Z,17.35
2018-07-24T04:39:13.076Z,17.37
2018-07-24T04:41:41.990Z,17.37
2018-07-24T04:44:10.928Z,17.41
2018-07-24T04:46:39.869Z,17.43
2018-07-24T04:49:08.785Z,17.46
2018-07-24T04:51:37.693Z,17.42
2018-07-24T04:54:06.652Z,17.45
2018-07-24T04:56:35.660Z,17.52
2018-07-24T04:59:04.594Z,17.58
2018-07-24T05:01:33.549Z,17.58
2018-07-24T05:04:02.463Z,17.71
2018-07-24T05:06:31.431Z,17.72
2018-07-24T05:09:00.331Z,17.79
2018-07-24T05:11:29.232Z,17.90
2018-07-24T05:13:58.132Z,18.03
2018-07-24T05:16:27.047Z,18.17
2018-07-24T05:18:55.963Z,18.23
2018-07-24T05:21:24.879Z,18.34
2018-07-24T05:23:54.015Z,18.43
2018-07-24T05:26:22.903Z,18.48
2018-07-24T05:28:51.832Z,18.67
2018-07-24T05:31:20.769Z,18.71
2018-07-24T05:33:49.695Z,18.78
2018-07-24T05:36:18.606Z,18.90
2018-07-24T05:38:47.771Z,19.01
2018-07-24T05:41:16.628Z,19.16
2018-07-24T05:43:45.549Z,19.21
2018-07-24T05:46:14.491Z,19.27
2018-07-24T05:48:43.468Z,19.45
2018-07-24T05:51:12.383Z,19.48
2018-07-24T05:53:41.408Z,19.56
2018-07-24T05:56:10.345Z,19.70
2018-07-24T05:58:39.246Z,19.88
2018-07-24T06:01:08.191Z,20.27
2018-07-24T06:03:37.132Z,20.84
2018-07-24T06:06:06.096Z,21.66
2018-07-24T06:08:35.051Z,22.93
2018-07-24T06:11:04.034Z,24.63
2018-07-24T06:13:32.994Z,26.38
2018-07-24T06:16:02.775Z,26.82
2018-07-24T06:18:31.920Z,28.22
2018-07-24T06:21:00.927Z,28.54
2018-07-24T06:23:30.003Z,28.49
2018-07-24T06:25:58.845Z,28.97
2018-07-24T06:28:27.803Z,29.25
2018-07-24T06:30:56.741Z,28.91
2018-07-24T06:33:26.706Z,29.00
2018-07-24T06:35:55.685Z,29.17
2018-07-24T06:38:24.624Z,30.29
2018-07-24T06:40:53.641Z,30.78
2018-07-24T06:43:22.579Z,31.27
2018-07-24T06:45:51.514Z,30.73
2018-07-24T06:48:20.477Z,30.41
2018-07-24T06:50:49.590Z,30.22
2018-07-24T06:53:18.549Z,30.94
2018-07-24T06:55:47.496Z,31.79
2018-07-24T06:58:16.516Z,32.34
2018-07-24T07:00:45.517Z,31.77
2018-07-24T07:03:14.725Z,32.05
2018-07-24T07:05:43.675Z,32.82
2018-07-24T07:08:12.686Z,31.31
2018-07-24T07:10:41.583Z,31.12
2018-07-24T07:13:10.551Z,31.09
2018-07-24T07:15:39.419Z,31.40
2018-07-24T07:18:09.384Z,31.85
2018-07-24T07:20:38.460Z,32.40
2018-07-24T07:23:07.356Z,32.71
2018-07-24T07:25:36.349Z,32.98
2018-07-24T07:28:05.498Z,33.61
2018-07-24T07:30:34.436Z,33.83
2018-07-24T07:33:03.328Z,32.63
2018-07-24T07:35:32.270Z,32.05
2018-07-24T07:38:01.462Z,31.80
2018-07-24T07:40:30.456Z,33.24
2018-07-24T07:42:59.375Z,32.80
2018-07-24T07:45:28.308Z,32.14
2018-07-24T07:47:57.568Z,33.77
2018-07-24T07:50:26.534Z,34.03
2018-07-24T07:52:55.573Z,33.22
2018-07-24T07:55:24.614Z,33.13
2018-07-24T07:57:53.521Z,32.83
2018-07-24T08:00:22.417Z,33.52
2018-07-24T08:02:51.533Z,33.31
2018-07-24T08:05:20.514Z,33.57
2018-07-24T08:07:49.729Z,33.45
2018-07-24T08:10:18.722Z,32.85
2018-07-24T08:12:47.821Z,33.46
2018-07-24T08:15:16.744Z,32.94
2018-07-24T08:17:45.633Z,33.13
2018-07-24T08:20:14.539Z,32.94
2018-07-24T08:22:43.539Z,32.42
2018-07-24T08:25:12.455Z,32.01
2018-07-24T08:27:41.496Z,31.54
2018-07-24T08:30:10.601Z,32.06
2018-07-24T08:32:39.523Z,32.62
2018-07-24T08:35:08.423Z,33.52
2018-07-24T08:37:38.677Z,33.80
2018-07-24T08:40:07.840Z,33.58
2018-07-24T08:42:37.089Z,33.56
2018-07-24T08:45:06.904Z,33.97
2018-07-24T08:47:35.875Z,33.76
2018-07-24T08:50:05.282Z,33.32
2018-07-24T08:52:34.501Z,34.91
2018-07-24T08:55:03.738Z,34.60
2018-07-24T08:57:32.564Z,34.07
2018-07-24T09:00:01.586Z,34.59
2018-07-24T09:02:30.479Z,35.16
2018-07-24T09:04:59.379Z,34.90
2018-07-24T09:07:28.272Z,34.99
2018-07-24T09:09:57.244Z,34.24
2018-07-24T09:12:26.135Z,33.56
2018-07-24T09:14:55.083Z,34.81
2018-07-24T09:17:24.018Z,32.98
2018-07-24T09:19:52.930Z,33.66
2018-07-24T09:22:21.892Z,33.07
2018-07-24T09:24:50.844Z,34.50
2018-07-24T09:27:19.787Z,34.05
2018-07-24T09:29:48.688Z,34.35
2018-07-24T09:32:18.664Z,33.53
2018-07-24T09:34:47.586Z,32.72
2018-07-24T09:37:16.493Z,32.04
2018-07-24T09:39:45.378Z,32.21
2018-07-24T09:42:14.285Z,33.07
2018-07-24T09:44:43.165Z,33.12
2018-07-24T09:47:12.061Z,33.39
2018-07-24T09:49:40.973Z,33.96
2018-07-24T09:52:09.899Z,34.92
2018-07-24T09:54:38.801Z,34.93
2018-07-24T09:57:07.720Z,34.91
2018-07-24T09:59:36.612Z,35.62
2018-07-24T10:02:05.651Z,35.35
2018-07-24T10:04:34.567Z,35.59
2018-07-24T10:07:03.498Z,36.18
2018-07-24T10:09:32.465Z,35.99
2018-07-24T10:12:01.430Z,35.67
2018-07-24T10:14:30.380Z,35.53
2018-07-24T10:16:59.438Z,35.98
2018-07-24T10:19:28.557Z,35.95
2018-07-24T10:21:57.596Z,35.93
2018-07-24T10:24:26.586Z,35.18
2018-07-24T10:26:55.477Z,35.43
2018-07-24T10:29:24.565Z,34.90
2018-07-24T10:31:53.483Z,35.30
2018-07-24T10:34:22.553Z,36.08
2018-07-24T10:36:51.475Z,36.26
2018-07-24T10:39:20.371Z,36.04
2018-07-24T10:41:49.271Z,36.16
2018-07-24T10:44:18.197Z,37.48
2018-07-24T10:46:47.149Z,36.47
2018-07-24T10:49:16.065Z,36.39
2018-07-24T10:51:44.959Z,36.38
2018-07-24T10:54:13.892Z,36.41
2018-07-24T10:56:42.796Z,35.97
2018-07-24T10:59:11.705Z,35.74
2018-07-24T11:01:40.656Z,35.33
2018-07-24T11:04:09.594Z,36.39
2018-07-24T11:06:38.500Z,37.31
2018-07-24T11:09:08.344Z,37.89
2018-07-24T11:11:37.235Z,37.35
2018-07-24T11:14:06.128Z,36.43
2018-07-24T11:16:35.058Z,36.48
2018-07-24T11:19:03.912Z,35.87
2018-07-24T11:21:33.541Z,34.78
2018-07-24T11:24:02.537Z,34.41
2018-07-24T11:26:31.773Z,35.19
2018-07-24T11:29:00.679Z,35.43
2018-07-24T11:31:29.599Z,35.54
2018-07-24T11:33:58.592Z,35.81
2018-07-24T11:36:27.491Z,35.90
2018-07-24T11:38:56.396Z,35.94
2018-07-24T11:41:25.375Z,36.93
2018-07-24T11:43:55.256Z,37.34
2018-07-24T11:46:24.190Z,37.14
2018-07-24T11:48:53.057Z,36.78
2018-07-24T11:51:22.065Z,36.63
2018-07-24T11:53:50.976Z,36.93
2018-07-24T11:56:19.908Z,36.85
2018-07-24T11:58:48.840Z,37.24
2018-07-24T12:01:17.976Z,37.61
2018-07-24T12:03:46.876Z,36.01
2018-07-24T12:06:15.785Z,36.73
2018-07-24T12:08:44.799Z,36.79
2018-07-24T12:11:14.751Z,36.71
2018-07-24T12:13:43.650Z,36.58
2018-07-24T12:16:12.549Z,36.83
2018-07-24T12:18:41.437Z,37.51
2018-07-24T12:21:10.347Z,37.58
2018-07-24T12:23:39.275Z,37.43
2018-07-24T12:26:08.199Z,37.19
2018-07-24T12:28:37.209Z,37.79
2018-07-24T12:31:06.132Z,38.03
2018-07-24T12:33:35.028Z,38.51
2018-07-24T12:36:04.049Z,37.82
2018-07-24T12:38:32.891Z,38.25
2018-07-24T12:41:01.899Z,38.38
2018-07-24T12:43:30.891Z,38.52
2018-07-24T12:46:01.817Z,38.18
2018-07-24T12:48:31.082Z,38.39
2018-07-24T12:51:00.749Z,37.80
2018-07-24T12:53:30.011Z,38.37
2018-07-24T12:55:58.988Z,38.17
2018-07-24T12:58:27.893Z,38.12
2018-07-24T13:00:56.850Z,37.82
2018-07-24T13:03:25.752Z,37.52
2018-07-24T13:05:54.721Z,37.78
2018-07-24T13:08:23.639Z,37.86
2018-07-24T13:10:52.629Z,38.39
2018-07-24T13:13:21.484Z,37.46
2018-07-24T13:15:50.400Z,37.35
2018-07-24T13:18:19.434Z,37.75
2018-07-24T13:20:48.320Z,37.90
2018-07-24T13:23:17.332Z,37.10
2018-07-24T13:25:46.376Z,37.67
2018-07-24T13:28:15.312Z,37.50
2018-07-24T13:30:44.212Z,37.55
2018-07-24T13:33:13.123Z,37.64
2018-07-24T13:35:42.056Z,36.94
2018-07-24T13:38:10.974Z,37.71
2018-07-24T13:40:39.876Z,37.18
2018-07-24T13:43:08.880Z,37.72
2018-07-24T13:45:37.803Z,38.32
2018-07-24T13:48:07.019Z,37.86
2018-07-24T13:50:36.264Z,38.84
2018-07-24T13:53:05.908Z,39.02
2018-07-24T13:55:34.956Z,38.30
2018-07-24T13:58:03.977Z,38.23
2018-07-24T14:00:32.870Z,37.98
2018-07-24T14:03:01.803Z,38.04
2018-07-24T14:05:31.648Z,37.55
2018-07-24T14:08:00.509Z,37.43
2018-07-24T14:10:29.663Z,36.84
2018-07-24T14:12:58.657Z,38.10
2018-07-24T14:15:27.591Z,38.07
2018-07-24T14:17:56.561Z,37.83
2018-07-24T14:20:25.469Z,38.53
2018-07-24T14:22:54.498Z,38.53
2018-07-24T14:25:23.411Z,37.48
2018-07-24T14:27:52.560Z,37.41
2018-07-24T14:30:21.547Z,37.99
2018-07-24T14:32:50.471Z,37.67
2018-07-24T14:35:19.429Z,37.23
2018-07-24T15:59:47.289Z,35.81
2018-07-24T16:02:16.167Z,35.59
2018-07-24T16:04:45.069Z,36.05
2018-07-24T16:07:14.068Z,35.81
2018-07-24T16:09:43.068Z,35.72
2018-07-24T16:12:12.104Z,35.63
2018-07-24T16:14:41.070Z,35.54
2018-07-24T16:17:09.975Z,35.44
2018-07-24T16:19:45.780Z,35.17
2018-07-24T16:22:14.882Z,34.89
2018-07-24T16:24:43.821Z,34.60
2018-07-24T16:27:12.736Z,34.20
2018-07-24T16:29:41.631Z,34.22
2018-07-24T16:32:10.755Z,33.84
2018-07-24T16:34:39.663Z,33.34
2018-07-24T16:37:08.573Z,33.28
2018-07-24T16:39:37.460Z,33.24
2018-07-24T16:42:06.356Z,33.42
2018-07-24T16:44:35.268Z,33.34
2018-07-24T16:47:04.204Z,33.53
2018-07-24T16:49:33.135Z,33.57
2018-07-24T16:52:02.096Z,33.56
2018-07-24T16:54:31.039Z,33.15
2018-07-24T16:56:59.937Z,33.15
2018-07-24T16:59:28.850Z,32.99
2018-07-24T17:01:57.755Z,33.06
2018-07-24T17:04:26.647Z,32.69
2018-07-24T17:06:56.610Z,32.66
2018-07-24T17:09:25.516Z,32.59
2018-07-24T17:11:54.415Z,32.22
2018-07-24T17:14:23.323Z,32.08
2018-07-24T17:16:52.234Z,31.86
2018-07-24T17:19:21.138Z,31.62
2018-07-24T17:21:50.078Z,31.53
2018-07-24T17:24:19.196Z,31.34
2018-07-24T17:26:48.122Z,31.16
2018-07-24T17:29:17.056Z,30.99
2018-07-24T17:31:45.987Z,30.90
2018-07-24T17:34:14.871Z,30.87
2018-07-24T17:36:43.825Z,30.76
2018-07-24T17:39:13.739Z,30.75
2018-07-24T17:41:42.798Z,30.69
2018-07-24T17:44:11.629Z,30.58
2018-07-24T17:46:40.527Z,30.31
2018-07-24T17:49:09.455Z,30.26
2018-07-24T17:51:38.488Z,30.26
2018-07-24T17:54:07.494Z,30.02
2018-07-24T17:56:36.379Z,30.03
2018-07-24T17:59:05.295Z,30.02
2018-07-24T18:01:34.188Z,29.93
2018-07-24T18:04:03.150Z,29.89
2018-07-24T18:06:32.025Z,29.83
2018-07-24T18:09:00.939Z,29.74
2018-07-24T18:11:29.944Z,29.66
2018-07-24T18:13:58.952Z,29.54
2018-07-24T18:16:27.866Z,29.43
2018-07-24T18:18:56.767Z,29.34
2018-07-24T18:21:25.709Z,29.33
2018-07-24T18:23:54.588Z,29.20
2018-07-24T18:26:23.482Z,29.12
2018-07-24T18:28:52.384Z,29.07
2018-07-24T18:31:21.427Z,29.02
2018-07-24T18:33:50.349Z,28.91
2018-07-24T18:36:19.279Z,28.82
2018-07-24T18:38:48.179Z,28.73
2018-07-24T18:41:17.109Z,28.63
2018-07-24T18:43:45.981Z,28.46
2018-07-24T18:46:15.195Z,28.40
2018-07-24T18:48:44.096Z,28.31
2018-07-24T18:51:12.999Z,28.14
2018-07-24T18:53:41.906Z,28.07
2018-07-24T18:56:10.786Z,27.99
2018-07-24T18:58:39.803Z,27.88
2018-07-24T19:01:08.756Z,27.72
2018-07-24T19:03:37.695Z,27.71
2018-07-24T19:06:06.579Z,27.55
2018-07-24T19:08:35.463Z,27.39
2018-07-24T19:11:04.378Z,27.22
2018-07-24T19:13:33.329Z,27.10
2018-07-24T19:16:02.296Z,26.98
2018-07-24T19:18:31.188Z,26.86
2018-07-24T19:21:00.077Z,26.73
2018-07-24T19:23:29.083Z,26.66
2018-07-24T19:25:58.043Z,26.64
2018-07-24T19:28:26.988Z,26.64
2018-07-24T19:30:55.902Z,26.56
2018-07-24T19:33:24.824Z,26.52
2018-07-24T19:35:53.744Z,26.40
2018-07-24T19:38:22.716Z,26.39
2018-07-24T19:40:51.667Z,26.37
2018-07-24T19:43:20.652Z,26.33
2018-07-24T19:45:49.546Z,26.28
2018-07-24T19:48:18.503Z,26.20
2018-07-24T19:50:47.499Z,26.17
2018-07-24T19:53:16.411Z,26.12
2018-07-24T19:55:45.392Z,26.07
2018-07-24T19:58:14.291Z,26.09
2018-07-24T20:00:43.236Z,26.07
2018-07-24T20:03:12.167Z,26.01
2018-07-24T20:05:41.204Z,25.96
2018-07-24T20:08:10.122Z,25.86
2018-07-24T20:10:39.021Z,25.86
2018-07-24T20:13:07.943Z,25.86
2018-07-24T20:15:36.852Z,25.83
2018-07-24T20:18:05.743Z,25.82
2018-07-24T20:20:34.671Z,25.73
2018-07-24T20:23:03.773Z,25.72
2018-07-24T20:25:32.627Z,25.67
2018-07-24T20:28:01.600Z,25.63
2018-07-24T20:30:30.967Z,25.52
2018-07-24T20:32:59.841Z,25.52
2018-07-24T20:35:28.799Z,25.51
2018-07-24T20:37:57.634Z,25.50
2018-07-24T20:40:33.249Z,25.49
2018-07-24T20:43:02.160Z,25.41
2018-07-24T20:45:31.325Z,25.34
2018-07-24T20:48:00.233Z,25.33
2018-07-24T20:50:29.140Z,25.32
2018-07-24T20:52:58.092Z,25.30
2018-07-24T20:55:27.016Z,25.28
2018-07-24T20:57:55.932Z,25.25
2018-07-24T21:00:25.470Z,25.20
2018-07-24T21:02:54.979Z,25.14
2018-07-24T21:05:24.522Z,25.07
2018-07-24T21:07:53.872Z,25.05
2018-07-24T21:10:23.452Z,25.01
2018-07-24T21:12:52.506Z,24.96
2018-07-24T21:15:21.387Z,24.96
2018-07-24T21:17:50.367Z,24.93
2018-07-24T21:20:19.695Z,24.94
2018-07-24T21:22:48.669Z,24.90
2018-07-24T21:25:17.655Z,24.85
2018-07-24T21:27:46.543Z,24.79
2018-07-24T21:30:15.519Z,24.78
2018-07-24T21:32:44.573Z,24.76
2018-07-24T21:35:13.503Z,24.71
2018-07-24T21:37:42.484Z,24.69
2018-07-24T21:40:12.579Z,24.67
2018-07-24T21:42:42.045Z,24.67
2018-07-24T21:45:11.128Z,24.60
2018-07-24T21:47:40.124Z,24.53
2018-07-24T21:50:09.122Z,24.48
2018-07-24T21:52:38.077Z,24.43
2018-07-24T21:55:06.993Z,24.41
2018-07-24T21:57:35.887Z,24.37
2018-07-24T22:00:07.502Z,24.33
2018-07-24T22:02:36.408Z,24.29
2018-07-24T22:05:05.419Z,24.27
2018-07-24T22:07:35.077Z,24.18
2018-07-24T22:10:08.353Z,24.14
2018-07-24T22:12:37.850Z,24.04
2018-07-24T22:15:15.306Z,23.97
2018-07-24T22:17:44.569Z,23.86
2018-07-24T22:20:13.560Z,23.74
2018-07-24T22:22:42.524Z,23.65
2018-07-24T22:25:11.487Z,23.46
2018-07-24T22:27:40.475Z,23.35
2018-07-24T22:30:09.909Z,23.23
2018-07-24T22:32:38.894Z,23.09
2018-07-24T22:35:08.811Z,22.97
2018-07-24T22:37:38.192Z,22.85
2018-07-24T22:40:08.069Z,22.81
2018-07-24T22:42:36.996Z,22.74
2018-07-24T22:45:06.372Z,22.67
2018-07-24T22:47:35.300Z,22.64
2018-07-24T22:50:04.590Z,22.53
2018-07-24T22:52:33.488Z,22.44
2018-07-24T22:55:02.526Z,22.40
2018-07-24T22:57:31.454Z,22.43
2018-07-24T23:00:00.331Z,22.36
2018-07-24T23:02:29.287Z,22.28
2018-07-24T23:04:58.185Z,22.17
2018-07-24T23:07:27.163Z,22.13
2018-07-24T23:09:56.089Z,22.12
2018-07-24T23:12:25.088Z,22.07
2018-07-24T23:14:54.030Z,21.98
2018-07-24T23:17:23.032Z,22.01
2018-07-24T23:19:51.957Z,21.95
2018-07-24T23:22:20.860Z,21.97
2018-07-24T23:24:49.782Z,21.95
2018-07-24T23:29:46.504Z,21.81
2018-07-24T23:32:15.399Z,21.76
2018-07-24T23:34:44.334Z,21.81
2018-07-24T23:37:13.279Z,21.80
2018-07-24T23:39:42.194Z,21.72
2018-07-24T23:42:11.269Z,21.69
2018-07-24T23:44:40.268Z,21.67
2018-07-24T23:47:09.260Z,21.64
2018-07-24T23:49:38.215Z,21.66
2018-07-24T23:52:07.150Z,21.59
2018-07-24T23:54:36.096Z,21.63
2018-07-24T23:57:04.983Z,21.55
2018-07-24T23:59:33.887Z,21.56
